sensor_id;sensor_type;location;lat;lon;timestamp;pressure;altitude;pressure_sealevel;temperature;humidity
70925;BME280;58577;52.410;13.242;2022-10-20T00:01:02;102270.88;;;3.76;100.00
70925;BME280;58577;52.410;13.242;2022-10-20T00:03:49;102264.47;;;3.59;100.00
70925;BME280;58577;52.410;13.242;2022-10-20T00:06:34;102259.31;;;3.56;100.00
70925;BME280;58577;52.410;13.242;2022-10-20T00:09:20;102258.78;;;3.68;100.00
70925;BME280;58577;52.410;13.242;2022-10-20T00:12:06;102262.66;;;3.61;100.00
70925;BME280;58577;52.410;13.242;2022-10-20T00:14:52;102250.22;;;3.82;100.00
70925;BME280;58577;52.410;13.242;2022-10-20T00:17:37;102250.25;;;3.62;100.00
70925;BME280;58577;52.410;13.242;2022-10-20T00:20:23;102253.81;;;3.61;100.00
70925;BME280;58577;52.410;13.242;2022-10-20T00:23:09;102250.31;;;3.60;100.00
70925;BME280;58577;52.410;13.242;2022-10-20T00:26:06;102256.34;;;3.84;100.00
70925;BME280;58577;52.410;13.242;2022-10-20T00:28:53;102252.03;;;3.82;100.00
70925;BME280;58577;52.410;13.242;2022-10-20T00:31:38;102244.78;;;3.85;100.00
70925;BME280;58577;52.410;13.242;2022-10-20T00:34:24;102240.94;;;3.72;100.00
70925;BME280;58577;52.410;13.242;2022-10-20T00:37:10;102238.16;;;3.54;100.00
70925;BME280;58577;52.410;13.242;2022-10-20T00:39:56;102239.16;;;3.52;100.00
70925;BME280;58577;52.410;13.242;2022-10-20T00:42:45;102221.38;;;3.54;100.00
70925;BME280;58577;52.410;13.242;2022-10-20T00:45:31;102220.00;;;3.44;100.00
70925;BME280;58577;52.410;13.242;2022-10-20T00:48:20;102214.16;;;3.35;100.00
70925;BME280;58577;52.410;13.242;2022-10-20T00:51:06;102214.50;;;3.28;100.00
70925;BME280;58577;52.410;13.242;2022-10-20T00:53:55;102207.75;;;3.21;100.00
70925;BME280;58577;52.410;13.242;2022-10-20T00:56:44;102215.13;;;3.12;100.00
70925;BME280;58577;52.410;13.242;2022-10-20T00:59:33;102212.53;;;3.11;100.00
70925;BME280;58577;52.410;13.242;2022-10-20T01:02:20;102214.53;;;3.06;100.00
70925;BME280;58577;52.410;13.242;2022-10-20T01:05:06;102211.41;;;3.17;100.00
70925;BME280;58577;52.410;13.242;2022-10-20T01:07:52;102210.88;;;3.08;100.00
70925;BME280;58577;52.410;13.242;2022-10-20T01:10:44;102211.06;;;3.04;100.00
70925;BME280;58577;52.410;13.242;2022-10-20T01:30:07;102193.56;;;3.42;100.00
70925;BME280;58577;52.410;13.242;2022-10-20T01:33:19;102188.81;;;3.08;100.00
70925;BME280;58577;52.410;13.242;2022-10-20T01:36:27;102187.56;;;2.94;100.00
70925;BME280;58577;52.410;13.242;2022-10-20T01:39:49;102182.25;;;3.17;100.00
70925;BME280;58577;52.410;13.242;2022-10-20T01:42:38;102177.78;;;2.97;100.00
70925;BME280;58577;52.410;13.242;2022-10-20T01:45:28;102169.75;;;2.98;100.00
70925;BME280;58577;52.410;13.242;2022-10-20T01:48:17;102171.25;;;2.83;100.00
70925;BME280;58577;52.410;13.242;2022-10-20T01:51:05;102165.09;;;3.03;100.00
70925;BME280;58577;52.410;13.242;2022-10-20T01:53:51;102155.53;;;3.21;100.00
70925;BME280;58577;52.410;13.242;2022-10-20T01:59:54;102151.63;;;2.87;100.00
70925;BME280;58577;52.410;13.242;2022-10-20T02:06:18;102131.84;;;3.17;100.00
70925;BME280;58577;52.410;13.242;2022-10-20T02:09:12;102129.78;;;3.03;100.00
70925;BME280;58577;52.410;13.242;2022-10-20T02:12:12;102131.78;;;2.98;100.00
70925;BME280;58577;52.410;13.242;2022-10-20T02:15:01;102121.97;;;3.00;100.00
70925;BME280;58577;52.410;13.242;2022-10-20T02:17:58;102114.13;;;2.97;100.00
70925;BME280;58577;52.410;13.242;2022-10-20T02:20:47;102119.69;;;2.90;100.00
70925;BME280;58577;52.410;13.242;2022-10-20T02:23:37;102114.03;;;2.78;100.00
70925;BME280;58577;52.410;13.242;2022-10-20T02:26:23;102123.88;;;2.96;100.00
70925;BME280;58577;52.410;13.242;2022-10-20T02:29:13;102123.66;;;2.80;100.00
70925;BME280;58577;52.410;13.242;2022-10-20T02:32:00;102120.44;;;2.72;100.00
70925;BME280;58577;52.410;13.242;2022-10-20T02:34:46;102120.88;;;2.83;100.00
70925;BME280;58577;52.410;13.242;2022-10-20T02:37:32;102122.66;;;2.83;100.00
70925;BME280;58577;52.410;13.242;2022-10-20T02:40:18;102107.34;;;2.89;100.00
70925;BME280;58577;52.410;13.242;2022-10-20T02:43:04;102108.34;;;2.87;100.00
70925;BME280;58577;52.410;13.242;2022-10-20T02:45:49;102106.56;;;2.87;100.00
70925;BME280;58577;52.410;13.242;2022-10-20T02:48:35;102103.06;;;2.87;100.00
70925;BME280;58577;52.410;13.242;2022-10-20T02:51:22;102115.63;;;2.82;100.00
70925;BME280;58577;52.410;13.242;2022-10-20T02:54:08;102100.59;;;2.82;100.00
70925;BME280;58577;52.410;13.242;2022-10-20T02:56:54;102101.41;;;2.84;100.00
70925;BME280;58577;52.410;13.242;2022-10-20T02:59:40;102097.88;;;2.84;100.00
70925;BME280;58577;52.410;13.242;2022-10-20T03:02:26;102097.28;;;2.77;100.00
70925;BME280;58577;52.410;13.242;2022-10-20T03:05:11;102103.50;;;2.76;100.00
70925;BME280;58577;52.410;13.242;2022-10-20T03:07:57;102091.59;;;2.64;100.00
70925;BME280;58577;52.410;13.242;2022-10-20T03:10:43;102092.34;;;2.68;100.00
70925;BME280;58577;52.410;13.242;2022-10-20T03:13:29;102086.44;;;2.61;100.00
70925;BME280;58577;52.410;13.242;2022-10-20T03:16:15;102090.06;;;2.59;100.00
70925;BME280;58577;52.410;13.242;2022-10-20T03:19:00;102078.31;;;2.66;100.00
70925;BME280;58577;52.410;13.242;2022-10-20T03:21:46;102082.91;;;2.61;100.00
70925;BME280;58577;52.410;13.242;2022-10-20T03:24:33;102078.75;;;2.55;100.00
70925;BME280;58577;52.410;13.242;2022-10-20T03:27:19;102074.75;;;2.87;100.00
70925;BME280;58577;52.410;13.242;2022-10-20T03:30:05;102072.41;;;2.80;100.00
70925;BME280;58577;52.410;13.242;2022-10-20T03:32:51;102071.63;;;2.78;100.00
70925;BME280;58577;52.410;13.242;2022-10-20T03:35:37;102072.63;;;2.75;100.00
70925;BME280;58577;52.410;13.242;2022-10-20T03:38:22;102071.28;;;2.65;100.00
70925;BME280;58577;52.410;13.242;2022-10-20T03:41:12;102067.78;;;2.85;100.00
70925;BME280;58577;52.410;13.242;2022-10-20T03:43:58;102068.50;;;2.68;100.00
70925;BME280;58577;52.410;13.242;2022-10-20T03:46:43;102069.81;;;2.58;100.00
70925;BME280;58577;52.410;13.242;2022-10-20T03:49:29;102069.34;;;2.68;100.00
70925;BME280;58577;52.410;13.242;2022-10-20T03:52:17;102067.97;;;2.60;100.00
70925;BME280;58577;52.410;13.242;2022-10-20T03:55:03;102066.09;;;2.62;100.00
70925;BME280;58577;52.410;13.242;2022-10-20T03:57:49;102062.13;;;2.51;100.00
70925;BME280;58577;52.410;13.242;2022-10-20T04:00:35;102054.78;;;2.58;100.00
70925;BME280;58577;52.410;13.242;2022-10-20T04:03:20;102054.28;;;2.48;100.00
70925;BME280;58577;52.410;13.242;2022-10-20T04:06:06;102048.13;;;2.48;100.00
70925;BME280;58577;52.410;13.242;2022-10-20T04:08:52;102052.56;;;2.47;100.00
70925;BME280;58577;52.410;13.242;2022-10-20T04:11:37;102052.50;;;2.49;100.00
70925;BME280;58577;52.410;13.242;2022-10-20T04:14:23;102040.84;;;2.53;100.00
70925;BME280;58577;52.410;13.242;2022-10-20T04:17:09;102044.09;;;2.60;100.00
70925;BME280;58577;52.410;13.242;2022-10-20T04:19:54;102046.50;;;2.66;100.00
70925;BME280;58577;52.410;13.242;2022-10-20T04:22:40;102045.16;;;2.55;100.00
70925;BME280;58577;52.410;13.242;2022-10-20T04:25:26;102043.56;;;2.51;100.00
70925;BME280;58577;52.410;13.242;2022-10-20T04:28:16;102036.22;;;2.58;100.00
70925;BME280;58577;52.410;13.242;2022-10-20T04:31:02;102034.81;;;2.49;100.00
70925;BME280;58577;52.410;13.242;2022-10-20T04:33:48;102028.59;;;2.50;100.00
70925;BME280;58577;52.410;13.242;2022-10-20T04:36:34;102023.44;;;2.68;100.00
70925;BME280;58577;52.410;13.242;2022-10-20T04:39:20;102029.53;;;2.49;100.00
70925;BME280;58577;52.410;13.242;2022-10-20T04:42:05;102024.94;;;2.53;100.00
70925;BME280;58577;52.410;13.242;2022-10-20T04:44:51;102019.53;;;2.56;100.00
70925;BME280;58577;52.410;13.242;2022-10-20T04:47:37;102013.81;;;2.45;100.00
70925;BME280;58577;52.410;13.242;2022-10-20T04:50:23;102018.31;;;2.43;100.00
70925;BME280;58577;52.410;13.242;2022-10-20T04:53:25;102023.59;;;2.43;100.00
70925;BME280;58577;52.410;13.242;2022-10-20T04:56:16;102013.75;;;2.46;100.00
70925;BME280;58577;52.410;13.242;2022-10-20T04:59:03;102012.94;;;2.44;100.00
70925;BME280;58577;52.410;13.242;2022-10-20T05:01:49;102007.78;;;2.41;100.00
70925;BME280;58577;52.410;13.242;2022-10-20T05:04:35;102006.13;;;2.39;100.00
70925;BME280;58577;52.410;13.242;2022-10-20T05:07:20;102003.41;;;2.40;100.00
70925;BME280;58577;52.410;13.242;2022-10-20T05:10:06;101998.91;;;2.42;100.00
70925;BME280;58577;52.410;13.242;2022-10-20T05:12:52;102000.88;;;2.37;100.00
70925;BME280;58577;52.410;13.242;2022-10-20T05:15:38;102000.03;;;2.36;100.00
70925;BME280;58577;52.410;13.242;2022-10-20T05:18:24;101987.78;;;2.34;100.00
70925;BME280;58577;52.410;13.242;2022-10-20T05:21:12;101980.91;;;2.50;100.00
70925;BME280;58577;52.410;13.242;2022-10-20T05:24:00;101983.91;;;2.63;100.00
70925;BME280;58577;52.410;13.242;2022-10-20T05:26:47;101978.25;;;2.50;100.00
70925;BME280;58577;52.410;13.242;2022-10-20T05:29:32;101979.25;;;2.48;100.00
70925;BME280;58577;52.410;13.242;2022-10-20T05:32:18;101987.38;;;2.43;100.00
70925;BME280;58577;52.410;13.242;2022-10-20T05:35:04;101993.63;;;2.42;100.00
70925;BME280;58577;52.410;13.242;2022-10-20T05:37:50;101987.66;;;2.58;100.00
70925;BME280;58577;52.410;13.242;2022-10-20T05:40:35;101984.50;;;2.49;100.00
70925;BME280;58577;52.410;13.242;2022-10-20T05:43:21;101987.28;;;2.67;100.00
70925;BME280;58577;52.410;13.242;2022-10-20T05:46:08;101989.72;;;2.71;100.00
70925;BME280;58577;52.410;13.242;2022-10-20T05:48:56;101996.28;;;2.83;100.00
70925;BME280;58577;52.410;13.242;2022-10-20T05:51:44;102000.38;;;2.70;100.00
70925;BME280;58577;52.410;13.242;2022-10-20T05:54:30;102008.06;;;2.76;100.00
70925;BME280;58577;52.410;13.242;2022-10-20T05:57:16;102006.81;;;2.64;100.00
70925;BME280;58577;52.410;13.242;2022-10-20T06:00:03;102005.41;;;2.76;100.00
70925;BME280;58577;52.410;13.242;2022-10-20T06:02:57;102009.13;;;2.72;100.00
70925;BME280;58577;52.410;13.242;2022-10-20T06:05:42;102004.63;;;2.74;100.00
70925;BME280;58577;52.410;13.242;2022-10-20T06:08:30;102010.28;;;2.87;100.00
70925;BME280;58577;52.410;13.242;2022-10-20T06:11:17;102007.41;;;2.91;100.00
70925;BME280;58577;52.410;13.242;2022-10-20T06:14:03;102007.63;;;2.87;100.00
70925;BME280;58577;52.410;13.242;2022-10-20T06:16:52;102008.06;;;2.76;100.00
70925;BME280;58577;52.410;13.242;2022-10-20T06:19:38;102009.47;;;2.85;100.00
70925;BME280;58577;52.410;13.242;2022-10-20T06:22:24;102006.97;;;3.02;100.00
70925;BME280;58577;52.410;13.242;2022-10-20T06:25:10;102005.50;;;2.95;100.00
70925;BME280;58577;52.410;13.242;2022-10-20T06:27:56;101997.22;;;2.82;100.00
70925;BME280;58577;52.410;13.242;2022-10-20T06:30:41;101999.13;;;2.99;100.00
70925;BME280;58577;52.410;13.242;2022-10-20T06:33:30;101990.59;;;3.13;100.00
70925;BME280;58577;52.410;13.242;2022-10-20T06:36:17;101991.94;;;3.22;100.00
70925;BME280;58577;52.410;13.242;2022-10-20T06:39:05;101991.03;;;3.23;100.00
70925;BME280;58577;52.410;13.242;2022-10-20T06:41:52;102000.84;;;3.21;100.00
70925;BME280;58577;52.410;13.242;2022-10-20T06:44:38;101991.72;;;3.26;100.00
70925;BME280;58577;52.410;13.242;2022-10-20T06:47:24;101990.06;;;3.44;100.00
70925;BME280;58577;52.410;13.242;2022-10-20T06:50:10;101981.81;;;3.50;100.00
70925;BME280;58577;52.410;13.242;2022-10-20T06:52:55;101988.19;;;3.65;100.00
70925;BME280;58577;52.410;13.242;2022-10-20T06:55:41;101984.81;;;3.81;100.00
70925;BME280;58577;52.410;13.242;2022-10-20T06:58:28;101982.16;;;3.81;100.00
70925;BME280;58577;52.410;13.242;2022-10-20T07:01:31;101979.50;;;3.81;100.00
70925;BME280;58577;52.410;13.242;2022-10-20T07:04:16;101982.50;;;3.92;100.00
70925;BME280;58577;52.410;13.242;2022-10-20T07:07:02;101981.63;;;3.91;100.00
70925;BME280;58577;52.410;13.242;2022-10-20T07:09:48;101982.22;;;3.98;100.00
70925;BME280;58577;52.410;13.242;2022-10-20T07:12:33;101988.34;;;4.18;100.00
70925;BME280;58577;52.410;13.242;2022-10-20T07:15:19;101977.94;;;4.13;100.00
70925;BME280;58577;52.410;13.242;2022-10-20T07:18:05;101979.59;;;4.16;100.00
70925;BME280;58577;52.410;13.242;2022-10-20T07:20:51;101977.41;;;4.24;100.00
70925;BME280;58577;52.410;13.242;2022-10-20T07:23:40;101987.75;;;4.30;100.00
70925;BME280;58577;52.410;13.242;2022-10-20T07:26:31;101987.94;;;4.44;100.00
70925;BME280;58577;52.410;13.242;2022-10-20T07:29:17;101982.63;;;4.44;100.00
70925;BME280;58577;52.410;13.242;2022-10-20T07:32:04;101987.94;;;4.44;100.00
70925;BME280;58577;52.410;13.242;2022-10-20T07:34:50;101988.41;;;4.52;100.00
70925;BME280;58577;52.410;13.242;2022-10-20T07:37:36;101989.97;;;4.57;100.00
70925;BME280;58577;52.410;13.242;2022-10-20T07:40:21;101975.56;;;4.61;100.00
70925;BME280;58577;52.410;13.242;2022-10-20T07:43:07;101980.63;;;4.65;100.00
70925;BME280;58577;52.410;13.242;2022-10-20T07:45:53;101973.84;;;4.77;100.00
70925;BME280;58577;52.410;13.242;2022-10-20T07:48:39;101971.19;;;4.95;100.00
70925;BME280;58577;52.410;13.242;2022-10-20T07:51:27;101967.59;;;5.11;100.00
70925;BME280;58577;52.410;13.242;2022-10-20T07:54:13;101977.44;;;5.27;100.00
70925;BME280;58577;52.410;13.242;2022-10-20T07:56:59;101981.22;;;5.39;100.00
70925;BME280;58577;52.410;13.242;2022-10-20T07:59:45;101979.19;;;5.60;100.00
70925;BME280;58577;52.410;13.242;2022-10-20T08:02:30;101971.91;;;5.63;100.00
70925;BME280;58577;52.410;13.242;2022-10-20T08:05:16;101970.00;;;5.81;100.00
70925;BME280;58577;52.410;13.242;2022-10-20T08:08:02;101974.81;;;5.90;100.00
70925;BME280;58577;52.410;13.242;2022-10-20T08:10:48;101960.09;;;6.01;100.00
70925;BME280;58577;52.410;13.242;2022-10-20T08:13:34;101955.50;;;6.19;100.00
70925;BME280;58577;52.410;13.242;2022-10-20T08:16:19;101948.16;;;6.38;100.00
70925;BME280;58577;52.410;13.242;2022-10-20T08:19:06;101944.94;;;6.47;100.00
70925;BME280;58577;52.410;13.242;2022-10-20T08:21:52;101948.94;;;6.55;100.00
70925;BME280;58577;52.410;13.242;2022-10-20T08:24:38;101941.66;;;6.73;100.00
70925;BME280;58577;52.410;13.242;2022-10-20T08:27:23;101936.84;;;6.94;100.00
70925;BME280;58577;52.410;13.242;2022-10-20T08:30:09;101944.72;;;7.24;100.00
70925;BME280;58577;52.410;13.242;2022-10-20T08:32:55;101939.31;;;7.40;99.07
70925;BME280;58577;52.410;13.242;2022-10-20T08:35:41;101938.44;;;7.39;96.90
70925;BME280;58577;52.410;13.242;2022-10-20T08:38:27;101938.91;;;7.46;96.62
70925;BME280;58577;52.410;13.242;2022-10-20T08:41:20;101933.56;;;7.46;95.71
70925;BME280;58577;52.410;13.242;2022-10-20T08:44:06;101930.19;;;7.57;95.17
70925;BME280;58577;52.410;13.242;2022-10-20T08:46:52;101919.31;;;7.60;94.96
70925;BME280;58577;52.410;13.242;2022-10-20T08:49:38;101922.78;;;7.89;93.48
70925;BME280;58577;52.410;13.242;2022-10-20T08:52:25;101926.53;;;8.54;90.44
70925;BME280;58577;52.410;13.242;2022-10-20T08:55:28;101926.22;;;8.71;89.06
70925;BME280;58577;52.410;13.242;2022-10-20T08:58:19;101928.50;;;9.40;85.33
70925;BME280;58577;52.410;13.242;2022-10-20T09:01:15;101925.63;;;9.80;83.81
70925;BME280;58577;52.410;13.242;2022-10-20T09:04:11;101921.88;;;10.07;83.33
70925;BME280;58577;52.410;13.242;2022-10-20T09:07:03;101925.03;;;10.71;80.16
70925;BME280;58577;52.410;13.242;2022-10-20T09:09:51;101952.50;;;11.76;74.78
70925;BME280;58577;52.410;13.242;2022-10-20T09:12:39;101972.03;;;12.66;71.67
70925;BME280;58577;52.410;13.242;2022-10-20T09:15:27;101987.19;;;12.88;68.43
70925;BME280;58577;52.410;13.242;2022-10-20T09:18:14;102013.69;;;13.55;65.68
70925;BME280;58577;52.410;13.242;2022-10-20T09:21:07;102003.19;;;13.52;65.29
70925;BME280;58577;52.410;13.242;2022-10-20T09:24:02;101949.09;;;13.54;66.42
70925;BME280;58577;52.410;13.242;2022-10-20T09:26:49;101996.81;;;13.63;64.25
70925;BME280;58577;52.410;13.242;2022-10-20T09:29:37;101979.69;;;13.74;64.18
70925;BME280;58577;52.410;13.242;2022-10-20T09:35:20;102013.69;;;15.60;61.07
70925;BME280;58577;52.410;13.242;2022-10-20T09:43:54;101953.06;;;14.88;60.46
70925;BME280;58577;52.410;13.242;2022-10-20T09:46:46;101929.63;;;14.49;61.46
70925;BME280;58577;52.410;13.242;2022-10-20T09:49:35;101904.53;;;15.24;62.78
70925;BME280;58577;52.410;13.242;2022-10-20T09:52:25;101945.78;;;14.88;59.92
70925;BME280;58577;52.410;13.242;2022-10-20T09:55:38;101907.91;;;14.61;61.19
70925;BME280;58577;52.410;13.242;2022-10-20T09:58:32;101926.38;;;14.07;61.26
70925;BME280;58577;52.410;13.242;2022-10-20T10:01:19;101936.50;;;15.01;59.63
70925;BME280;58577;52.410;13.242;2022-10-20T10:04:34;101954.09;;;15.80;58.93
70925;BME280;58577;52.410;13.242;2022-10-20T10:10:22;101986.94;;;16.66;55.73
70925;BME280;58577;52.410;13.242;2022-10-20T10:13:20;102003.94;;;16.05;54.02
70925;BME280;58577;52.410;13.242;2022-10-20T10:16:08;101968.19;;;15.83;55.64
70925;BME280;58577;52.410;13.242;2022-10-20T10:18:58;101958.28;;;15.37;55.79
70925;BME280;58577;52.410;13.242;2022-10-20T10:21:50;101905.03;;;14.23;58.85
70925;BME280;58577;52.410;13.242;2022-10-20T10:24:42;101820.81;;;14.20;61.08
70925;BME280;58577;52.410;13.242;2022-10-20T10:27:35;101847.94;;;14.28;58.48
70925;BME280;58577;52.410;13.242;2022-10-20T10:30:31;101839.56;;;14.21;58.98
70925;BME280;58577;52.410;13.242;2022-10-20T10:33:28;101846.56;;;14.04;58.56
70925;BME280;58577;52.410;13.242;2022-10-20T10:36:35;101839.13;;;14.35;58.64
70925;BME280;58577;52.410;13.242;2022-10-20T10:39:20;101850.38;;;14.88;58.46
70925;BME280;58577;52.410;13.242;2022-10-20T10:46:18;101787.31;;;14.03;62.15
70925;BME280;58577;52.410;13.242;2022-10-20T10:52:06;101786.06;;;13.68;61.94
70925;BME280;58577;52.410;13.242;2022-10-20T10:55:18;101774.41;;;14.06;60.78
70925;BME280;58577;52.410;13.242;2022-10-20T11:20:37;101770.78;;;14.25;59.41
70925;BME280;58577;52.410;13.242;2022-10-20T11:23:51;101768.81;;;14.18;58.02
70925;BME280;58577;52.410;13.242;2022-10-20T11:26:49;101767.34;;;13.66;59.00
70925;BME280;58577;52.410;13.242;2022-10-20T11:29:55;101752.94;;;14.05;59.53
70925;BME280;58577;52.410;13.242;2022-10-20T11:33:13;101743.59;;;13.99;60.17
70925;BME280;58577;52.410;13.242;2022-10-20T11:36:03;101747.28;;;13.88;59.33
70925;BME280;58577;52.410;13.242;2022-10-20T11:38:54;101725.03;;;13.47;60.44
70925;BME280;58577;52.410;13.242;2022-10-20T11:41:47;101710.41;;;13.50;61.15
70925;BME280;58577;52.410;13.242;2022-10-20T11:44:39;101710.56;;;13.58;60.66
70925;BME280;58577;52.410;13.242;2022-10-20T11:47:35;101718.19;;;13.82;60.24
70925;BME280;58577;52.410;13.242;2022-10-20T11:50:24;101732.53;;;13.83;59.51
70925;BME280;58577;52.410;13.242;2022-10-20T11:53:39;101736.13;;;13.73;58.72
70925;BME280;58577;52.410;13.242;2022-10-20T11:59:47;101689.75;;;13.98;61.48
70925;BME280;58577;52.410;13.242;2022-10-20T12:06:12;101760.34;;;14.03;58.17
70925;BME280;58577;52.410;13.242;2022-10-20T12:15:44;101745.28;;;14.57;57.69
70925;BME280;58577;52.410;13.242;2022-10-20T12:18:32;101758.75;;;14.67;56.20
70925;BME280;58577;52.410;13.242;2022-10-20T12:27:34;101719.09;;;15.31;56.92
70925;BME280;58577;52.410;13.242;2022-10-20T12:36:28;101737.88;;;15.14;55.94
70925;BME280;58577;52.410;13.242;2022-10-20T12:39:20;101732.53;;;15.23;56.05
70925;BME280;58577;52.410;13.242;2022-10-20T12:42:21;101746.84;;;14.87;55.32
70925;BME280;58577;52.410;13.242;2022-10-20T12:45:31;101736.19;;;14.48;56.00
70925;BME280;58577;52.410;13.242;2022-10-20T12:48:22;101743.94;;;14.71;54.65
70925;BME280;58577;52.410;13.242;2022-10-20T12:51:18;101732.91;;;14.64;55.12
70925;BME280;58577;52.410;13.242;2022-10-20T12:54:28;101728.91;;;14.68;54.90
70925;BME280;58577;52.410;13.242;2022-10-20T12:57:30;101722.84;;;14.47;55.05
70925;BME280;58577;52.410;13.242;2022-10-20T13:09:17;101656.22;;;14.00;57.96
70925;BME280;58577;52.410;13.242;2022-10-20T13:12:23;101654.66;;;14.07;56.75
70925;BME280;58577;52.410;13.242;2022-10-20T13:15:12;101653.53;;;14.00;56.91
70925;BME280;58577;52.410;13.242;2022-10-20T13:18:05;101645.28;;;13.64;57.16
70925;BME280;58577;52.410;13.242;2022-10-20T13:24:02;101620.66;;;13.77;57.80
70925;BME280;58577;52.410;13.242;2022-10-20T13:26:52;101597.00;;;13.71;58.84
70925;BME280;58577;52.410;13.242;2022-10-20T13:29:40;101605.94;;;13.62;58.53
70925;BME280;58577;52.410;13.242;2022-10-20T13:32:52;101591.69;;;13.42;59.03
70925;BME280;58577;52.410;13.242;2022-10-20T13:35:56;101574.53;;;13.33;59.60
70925;BME280;58577;52.410;13.242;2022-10-20T13:38:54;101539.31;;;13.25;60.46
70925;BME280;58577;52.410;13.242;2022-10-20T13:45:38;101528.31;;;13.08;61.64
70925;BME280;58577;52.410;13.242;2022-10-20T13:51:26;101537.81;;;13.12;61.34
70925;BME280;58577;52.410;13.242;2022-10-20T13:54:22;101548.84;;;13.09;60.54
70925;BME280;58577;52.410;13.242;2022-10-20T13:57:29;101551.28;;;12.93;61.38
70925;BME280;58577;52.410;13.242;2022-10-20T14:00:29;101526.50;;;12.79;61.43
70925;BME280;58577;52.410;13.242;2022-10-20T14:03:16;101520.53;;;12.76;61.44
70925;BME280;58577;52.410;13.242;2022-10-20T14:06:02;101533.03;;;12.77;62.21
70925;BME280;58577;52.410;13.242;2022-10-20T14:08:48;101513.72;;;12.82;63.00
70925;BME280;58577;52.410;13.242;2022-10-20T14:11:34;101506.09;;;12.77;63.07
70925;BME280;58577;52.410;13.242;2022-10-20T14:14:24;101510.34;;;12.79;62.84
70925;BME280;58577;52.410;13.242;2022-10-20T14:17:18;101531.44;;;12.74;62.19
70925;BME280;58577;52.410;13.242;2022-10-20T14:20:19;101535.28;;;12.82;61.61
70925;BME280;58577;52.410;13.242;2022-10-20T14:23:05;101539.25;;;12.77;61.31
70925;BME280;58577;52.410;13.242;2022-10-20T14:25:55;101528.47;;;12.68;61.87
70925;BME280;58577;52.410;13.242;2022-10-20T14:28:42;101512.31;;;12.68;63.23
70925;BME280;58577;52.410;13.242;2022-10-20T14:31:28;101510.91;;;12.64;63.49
70925;BME280;58577;52.410;13.242;2022-10-20T14:34:18;101525.47;;;12.61;62.31
70925;BME280;58577;52.410;13.242;2022-10-20T14:37:07;101501.69;;;12.56;63.75
70925;BME280;58577;52.410;13.242;2022-10-20T14:40:20;101485.81;;;12.53;64.29
70925;BME280;58577;52.410;13.242;2022-10-20T14:46:10;101466.44;;;12.50;63.88
70925;BME280;58577;52.410;13.242;2022-10-20T14:48:58;101460.75;;;12.43;64.72
70925;BME280;58577;52.410;13.242;2022-10-20T14:54:38;101426.59;;;12.24;66.16
70925;BME280;58577;52.410;13.242;2022-10-20T15:00:34;101424.78;;;12.15;67.72
70925;BME280;58577;52.410;13.242;2022-10-20T15:03:20;101421.91;;;11.97;69.01
70925;BME280;58577;52.410;13.242;2022-10-20T15:06:12;101425.88;;;11.93;69.63
70925;BME280;58577;52.410;13.242;2022-10-20T15:08:59;101435.75;;;11.83;69.24
70925;BME280;58577;52.410;13.242;2022-10-20T15:11:46;101437.28;;;11.75;70.78
70925;BME280;58577;52.410;13.242;2022-10-20T15:14:32;101448.00;;;11.66;70.00
70925;BME280;58577;52.410;13.242;2022-10-20T15:17:44;101435.50;;;11.55;71.52
70925;BME280;58577;52.410;13.242;2022-10-20T15:23:24;101438.72;;;11.39;71.57
70925;BME280;58577;52.410;13.242;2022-10-20T15:26:12;101431.31;;;11.31;72.90
70925;BME280;58577;52.410;13.242;2022-10-20T15:28:58;101438.66;;;11.29;72.98
70925;BME280;58577;52.410;13.242;2022-10-20T15:31:44;101439.47;;;11.20;74.25
70925;BME280;58577;52.410;13.242;2022-10-20T15:34:30;101428.75;;;10.99;74.84
70925;BME280;58577;52.410;13.242;2022-10-20T15:37:15;101432.50;;;10.87;75.30
70925;BME280;58577;52.410;13.242;2022-10-20T15:40:01;101427.94;;;10.77;75.89
70925;BME280;58577;52.410;13.242;2022-10-20T15:42:47;101418.38;;;10.63;76.72
70925;BME280;58577;52.410;13.242;2022-10-20T15:45:37;101429.53;;;10.59;76.87
70925;BME280;58577;52.410;13.242;2022-10-20T15:48:24;101417.34;;;10.55;77.43
70925;BME280;58577;52.410;13.242;2022-10-20T15:51:23;101421.94;;;10.43;78.39
70925;BME280;58577;52.410;13.242;2022-10-20T15:54:12;101410.44;;;10.41;77.57
70925;BME280;58577;52.410;13.242;2022-10-20T15:56:58;101399.28;;;10.24;79.11
70925;BME280;58577;52.410;13.242;2022-10-20T15:59:44;101379.66;;;10.24;79.15
70925;BME280;58577;52.410;13.242;2022-10-20T16:02:30;101378.47;;;10.17;79.24
70925;BME280;58577;52.410;13.242;2022-10-20T16:05:21;101382.88;;;10.18;78.00
70925;BME280;58577;52.410;13.242;2022-10-20T16:08:07;101395.44;;;10.06;78.92
70925;BME280;58577;52.410;13.242;2022-10-20T16:10:53;101388.19;;;9.97;79.76
70925;BME280;58577;52.410;13.242;2022-10-20T16:13:40;101393.59;;;9.86;80.42
70925;BME280;58577;52.410;13.242;2022-10-20T16:16:26;101398.22;;;9.83;79.84
70925;BME280;58577;52.410;13.242;2022-10-20T16:19:12;101392.63;;;9.75;80.62
70925;BME280;58577;52.410;13.242;2022-10-20T16:21:58;101394.81;;;9.81;80.54
70925;BME280;58577;52.410;13.242;2022-10-20T16:24:45;101401.28;;;9.68;79.58
70925;BME280;58577;52.410;13.242;2022-10-20T16:27:32;101390.72;;;9.66;80.03
70925;BME280;58577;52.410;13.242;2022-10-20T16:30:18;101403.72;;;9.71;78.68
70925;BME280;58577;52.410;13.242;2022-10-20T16:33:03;101391.44;;;9.68;80.14
70925;BME280;58577;52.410;13.242;2022-10-20T16:35:49;101404.72;;;9.70;79.28